Skip Navigation Links
NOAA logo - Click to go to the NOAA homepage
NOAA's National Weather Service
Alaska Aviation Weather Unit
  NWS logo - Click to go to the NWS homepage
Left Navbar Graphic     15 AKDT = 23 GMT

   
NOAA is celebrating 200 years of science, service, and stewardship. Visit the NOAA 200th celebration Web site to learn more.
USA.gov is the U.S. Government's official Web portal to all Federal, state and local government Web resources and services.
Facebook
NWS on Facebook

Important Change Regarding the AAWU Web Presence

 

Over the last several months, the AAWU has been working to navigate its webpages to a nationally supported server. Security, as well as other needs, have necessitated the change.  We have been given an extension for the site changeover while we diligently work at addressing feedback received. As of July 14, 2017, aawu.arh.noaa.gov will be discontinued. The new AAWU web address is weather.gov/aawu. It is now live and will run in-parallel with the old site until it is discontinued on July 14, 2017. Please continue to send any feedback or questions regarding the new webpages to nws.ar.aawu.webauthors@noaa.gov.  Thank you for your patience during this time of transition.
AAWU Home :: Display TAF Add Bookmark
TAF PAKW 192327Z 2000/2024  05005KT P6SM -SHRA SCT035 BKN045 OVC100
      TEMPO 2002/2006 5SM -SHRA BKN025 OVC040
     FM200900 22005KT P6SM -SHRA SCT025 OVC040
      AMD LTD TO CLD VIS AND WIND=

7897
FTAK31 PAJN 192327
TAFAPG
TAF
SPECI PAKW 191701Z AUTO 05006KT 10SM SCT027 BKN050 06/03 A2890 RMK
 AO2 T00560033 TSNO=

METAR PAKW 191753Z AUTO VRB04KT 10SM FEW028 07/04 A2892 RMK AO2 SLP795
     60002 T00720039 10072 20056 53015 TSNO=

SPECI PAKW 191808Z AUTO VRB05KT 10SM BKN028 07/04 A2893 RMK AO2
     T00670039 TSNO=

SPECI PAKW 191836Z AUTO 03006KT 10SM BKN030 07/04 A2894 RMK AO2
     T00720044 TSNO=

METAR PAKW 191853Z AUTO 04006KT 10SM SCT030 BKN046 07/04 A2894 RMK AO2
     SLP801 T00720044 TSNO=

SPECI PAKW 191917Z AUTO 03007KT 10SM BKN024 BKN046 08/05 A2895 RMK AO2
     T00830050 TSNO=

METAR PAKW 191953Z AUTO 03006KT 10SM SCT025 OVC048 08/04 A2897 RMK AO2
     SLP809 T00830044 TSNO=

METAR PAKW 192053Z AUTO 03006KT 10SM OVC047 09/05 A2898 RMK AO2 SLP815
     T00890050 52020 TSNO=

METAR PAKW 192153Z AUTO 04007KT 10SM BKN048 BKN120 08/05 A2900 RMK AO2
     SLP821 T00830050 TSNO=

METAR PAKW 192253Z AUTO 00000KT 10SM OVC028 09/06 A2902 RMK AO2 SLP828
     T00890056 TSNO=


NOAA's National Weather Service
Alaska Aviation Weather Unit
6930 Sand Lake Road
Anchorage, AK 99502-1845
Disclaimer
Credits
Glossary
Privacy Policy
About Us
Career Opportunities
Contact AAWU Internet Services Site last modified: April, 17th 2012